createdAt,value
2023-03-07T00:00:03.884Z,2.99
2023-03-07T00:03:06.843Z,2.95
2023-03-07T00:06:11.435Z,2.99
2023-03-07T00:09:13.084Z,3.06
2023-03-07T00:12:14.734Z,3.00
2023-03-07T00:15:16.544Z,2.98
2023-03-07T00:18:18.018Z,2.96
2023-03-07T00:21:21.237Z,2.98
2023-03-07T00:24:22.735Z,2.89
2023-03-07T00:27:24.246Z,2.83
2023-03-07T00:30:25.669Z,2.84
2023-03-07T00:33:27.773Z,2.81
2023-03-07T00:36:29.455Z,2.81
2023-03-07T00:39:30.942Z,2.80
2023-03-07T00:42:32.824Z,2.80
2023-03-07T00:45:34.309Z,2.84
2023-03-07T00:48:38.546Z,2.80
2023-03-07T00:51:40.307Z,2.87
2023-03-07T00:54:42.485Z,2.88
2023-03-07T00:57:44.111Z,2.84
2023-03-07T01:00:45.597Z,2.80
2023-03-07T01:03:53.349Z,2.73
2023-03-07T01:06:54.967Z,2.72
2023-03-07T01:09:56.444Z,2.75
2023-03-07T01:12:57.953Z,2.77
2023-03-07T01:16:17.831Z,2.74
2023-03-07T01:19:19.432Z,2.75
2023-03-07T01:22:21.211Z,2.71
2023-03-07T01:25:22.737Z,2.69
2023-03-07T01:28:24.348Z,2.69
2023-03-07T01:31:26.455Z,2.75
2023-03-07T01:34:27.965Z,2.77
2023-03-07T01:37:29.464Z,2.73
2023-03-07T01:40:31.666Z,2.71
2023-03-07T01:43:34.449Z,2.68
2023-03-07T01:46:57.984Z,2.63
2023-03-07T01:50:09.844Z,2.65
2023-03-07T01:53:11.651Z,2.72
2023-03-07T01:56:14.358Z,2.66
2023-03-07T01:59:27.887Z,2.75
2023-03-07T02:02:29.602Z,2.81
2023-03-07T02:05:38.140Z,2.84
2023-03-07T02:08:42.093Z,2.83
2023-03-07T02:11:45.151Z,2.80
2023-03-07T02:14:49.278Z,2.81
2023-03-07T02:17:51.547Z,2.81
2023-03-07T02:21:17.684Z,2.83
2023-03-07T02:24:33.618Z,2.87
2023-03-07T02:27:37.384Z,2.91
2023-03-07T02:30:53.301Z,2.89
2023-03-07T02:33:55.714Z,2.86
2023-03-07T02:37:11.178Z,2.83
2023-03-07T02:40:16.562Z,2.82
2023-03-07T02:43:18.454Z,2.81
2023-03-07T02:46:20.411Z,2.67
2023-03-07T02:49:22.245Z,2.76
2023-03-07T02:52:24.662Z,2.77
2023-03-07T02:55:26.327Z,2.72
2023-03-07T02:58:34.018Z,2.72
2023-03-07T03:01:36.275Z,2.74
2023-03-07T03:04:38.042Z,2.74
2023-03-07T03:07:39.560Z,2.77
2023-03-07T03:10:41.052Z,2.78
2023-03-07T03:13:42.942Z,2.86
2023-03-07T03:16:44.469Z,2.92
2023-03-07T03:19:45.929Z,2.91
2023-03-07T03:22:47.462Z,2.85
2023-03-07T03:26:07.604Z,2.78
2023-03-07T03:29:09.842Z,2.83
2023-03-07T03:32:11.515Z,2.82
2023-03-07T03:35:14.662Z,2.77
2023-03-07T03:38:16.987Z,2.75
2023-03-07T03:41:18.563Z,2.76
2023-03-07T03:44:22.686Z,2.76
2023-03-07T03:47:24.470Z,2.77
2023-03-07T03:50:26.064Z,2.77
2023-03-07T03:53:27.603Z,2.76
2023-03-07T03:56:29.746Z,2.74
2023-03-07T03:59:31.290Z,2.77
2023-03-07T04:02:34.051Z,2.74
2023-03-07T04:05:35.835Z,2.79
2023-03-07T04:08:38.561Z,2.80
2023-03-07T04:11:40.064Z,2.78
2023-03-07T04:14:41.881Z,2.80
2023-03-07T04:17:43.408Z,2.85
2023-03-07T04:20:45.788Z,2.81
2023-03-07T04:23:49.566Z,2.83
2023-03-07T04:26:51.455Z,2.86
2023-03-07T04:29:53.004Z,2.84
2023-03-07T04:32:56.497Z,2.85
2023-03-07T04:35:58.234Z,2.85
2023-03-07T04:38:59.873Z,2.86
2023-03-07T04:42:01.714Z,2.85
2023-03-07T04:45:09.427Z,2.76
2023-03-07T04:48:10.960Z,2.79
2023-03-07T04:51:13.161Z,2.78
2023-03-07T04:54:15.130Z,2.77
2023-03-07T04:57:17.252Z,2.73
2023-03-07T05:00:20.019Z,2.74
2023-03-07T05:03:24.358Z,2.73
2023-03-07T05:06:25.941Z,2.75
2023-03-07T05:09:27.626Z,2.76
2023-03-07T05:12:29.401Z,2.77
2023-03-07T05:15:31.867Z,2.77
2023-03-07T05:18:33.529Z,2.84
2023-03-07T05:21:35.647Z,2.84
2023-03-07T05:24:37.213Z,2.84
2023-03-07T05:27:39.429Z,2.84
2023-03-07T05:30:40.934Z,2.85
2023-03-07T05:33:42.668Z,2.82
2023-03-07T05:36:44.672Z,2.81
2023-03-07T05:39:46.565Z,2.82
2023-03-07T05:42:48.168Z,2.81
2023-03-07T05:45:50.331Z,2.78
2023-03-07T05:48:51.955Z,2.78
2023-03-07T05:51:53.554Z,2.83
2023-03-07T05:54:56.453Z,2.87
2023-03-07T05:57:58.020Z,2.89
2023-03-07T06:01:02.948Z,2.92
2023-03-07T06:04:05.229Z,2.91
2023-03-07T06:07:06.838Z,2.93
2023-03-07T06:10:09.347Z,2.98
2023-03-07T06:13:17.750Z,3.01
2023-03-07T06:16:19.317Z,3.01
2023-03-07T06:19:20.949Z,2.98
2023-03-07T06:22:24.020Z,2.98
2023-03-07T06:25:25.629Z,2.99
2023-03-07T06:28:27.730Z,3.00
2023-03-07T06:31:29.380Z,3.04
2023-03-07T06:34:31.383Z,3.07
2023-03-07T06:37:33.230Z,3.02
2023-03-07T06:40:36.371Z,3.08
2023-03-07T06:43:38.045Z,3.07
2023-03-07T06:46:39.629Z,3.14
2023-03-07T06:49:46.921Z,3.15
2023-03-07T06:52:51.571Z,3.08
2023-03-07T06:55:53.478Z,3.07
2023-03-07T06:58:55.487Z,3.15
2023-03-07T07:02:03.169Z,3.25
2023-03-07T07:05:06.074Z,3.32
2023-03-07T07:08:07.646Z,3.36
2023-03-07T07:11:09.375Z,3.42
2023-03-07T07:14:11.788Z,3.40
2023-03-07T07:17:15.027Z,3.40
2023-03-07T07:20:17.440Z,3.38
2023-03-07T07:23:20.600Z,3.40
2023-03-07T07:26:24.378Z,3.33
2023-03-07T07:29:26.265Z,3.43
2023-03-07T07:32:28.042Z,3.44
2023-03-07T07:35:29.742Z,3.55
2023-03-07T07:38:31.386Z,3.61
2023-03-07T07:41:34.031Z,3.72
2023-03-07T07:44:35.960Z,3.73
2023-03-07T07:47:43.588Z,3.74
2023-03-07T07:50:45.135Z,3.73
2023-03-07T07:53:46.786Z,3.73
2023-03-07T07:56:48.723Z,3.82
2023-03-07T07:59:50.422Z,3.95
2023-03-07T08:02:52.278Z,4.18
2023-03-07T08:05:53.743Z,4.32
2023-03-07T08:08:55.888Z,4.44
2023-03-07T08:11:57.313Z,4.46
2023-03-07T08:14:58.804Z,4.37
2023-03-07T08:18:00.318Z,4.19
2023-03-07T08:21:01.804Z,4.15
2023-03-07T08:24:04.062Z,4.18
2023-03-07T08:27:05.927Z,4.12
2023-03-07T08:30:07.998Z,4.06
2023-03-07T08:33:09.618Z,4.06
2023-03-07T08:36:11.143Z,4.22
2023-03-07T08:39:13.177Z,4.26
2023-03-07T08:42:14.688Z,4.17
2023-03-07T08:45:16.446Z,4.17
2023-03-07T08:48:17.922Z,4.19
2023-03-07T08:51:19.723Z,4.26
2023-03-07T08:54:21.207Z,4.44
2023-03-07T08:57:22.768Z,4.54
2023-03-07T09:00:25.133Z,4.72
2023-03-07T09:03:26.775Z,4.80
2023-03-07T09:06:28.921Z,4.97
2023-03-07T09:09:31.294Z,5.10
2023-03-07T09:12:34.252Z,5.17
2023-03-07T09:15:38.739Z,5.14
2023-03-07T09:18:40.240Z,5.12
2023-03-07T09:21:41.766Z,4.96
2023-03-07T09:24:43.307Z,5.08
2023-03-07T09:27:45.614Z,5.03
2023-03-07T09:30:47.111Z,4.99
2023-03-07T09:33:48.897Z,5.15
2023-03-07T09:36:51.579Z,5.12
2023-03-07T09:39:53.049Z,5.32
2023-03-07T09:43:16.313Z,5.35
2023-03-07T09:46:59.020Z,5.28
2023-03-07T09:50:08.391Z,5.19
2023-03-07T09:53:22.354Z,5.37
2023-03-07T09:56:40.615Z,5.54
2023-03-07T09:59:43.971Z,5.38
2023-03-07T10:02:51.231Z,5.21
2023-03-07T10:05:57.213Z,5.12
2023-03-07T10:09:00.562Z,5.14
2023-03-07T10:12:37.340Z,5.34
2023-03-07T10:16:04.287Z,5.25
2023-03-07T10:19:28.161Z,5.35
2023-03-07T10:22:53.009Z,5.47
2023-03-07T10:26:00.178Z,5.33
2023-03-07T10:29:15.108Z,5.29
2023-03-07T10:32:20.067Z,5.47
2023-03-07T10:35:24.430Z,5.46
2023-03-07T10:38:49.705Z,5.58
2023-03-07T10:41:51.520Z,5.81
2023-03-07T10:44:53.254Z,5.93
2023-03-07T10:47:54.718Z,5.81
2023-03-07T10:51:15.124Z,5.87
2023-03-07T10:54:33.606Z,6.44
2023-03-07T10:57:35.087Z,6.86
2023-03-07T11:00:36.599Z,6.80
2023-03-07T11:03:59.984Z,7.09
2023-03-07T11:07:01.462Z,7.45
2023-03-07T11:10:36.720Z,8.07
2023-03-07T11:13:38.186Z,8.18
2023-03-07T11:16:50.474Z,7.93
2023-03-07T11:19:53.979Z,7.86
2023-03-07T11:23:23.284Z,8.04
2023-03-07T11:26:24.745Z,8.18
2023-03-07T11:29:28.373Z,7.82
2023-03-07T11:32:29.926Z,7.81
2023-03-07T11:35:46.441Z,7.79
2023-03-07T11:39:06.732Z,7.61
2023-03-07T11:42:23.958Z,7.67
2023-03-07T11:45:32.156Z,7.75
2023-03-07T11:48:51.314Z,7.45
2023-03-07T11:52:16.053Z,7.50
2023-03-07T11:55:36.216Z,7.76
2023-03-07T11:58:55.852Z,8.48
2023-03-07T12:01:59.848Z,8.36
2023-03-07T12:05:13.029Z,8.29
2023-03-07T12:08:37.728Z,8.50
2023-03-07T12:11:47.617Z,8.45
2023-03-07T12:15:00.991Z,8.26
2023-03-07T12:18:34.065Z,8.10
2023-03-07T12:21:57.230Z,8.21
2023-03-07T12:25:19.517Z,7.94
2023-03-07T12:28:21.043Z,7.77
2023-03-07T12:31:34.533Z,8.25
2023-03-07T12:34:44.168Z,8.58
2023-03-07T12:37:55.731Z,8.06
2023-03-07T12:41:05.776Z,7.86
2023-03-07T12:44:16.541Z,8.01
2023-03-07T12:47:33.532Z,8.50
2023-03-07T12:50:41.377Z,8.23
2023-03-07T12:53:49.279Z,7.83
2023-03-07T12:57:06.717Z,7.63
2023-03-07T13:00:12.614Z,8.25
2023-03-07T13:03:22.777Z,9.03
2023-03-07T13:06:25.666Z,9.46
2023-03-07T13:09:28.143Z,9.00
2023-03-07T13:12:37.838Z,8.34
2023-03-07T13:16:01.837Z,7.97
2023-03-07T13:19:31.026Z,8.12
2023-03-07T13:22:32.419Z,8.45
2023-03-07T13:25:49.143Z,8.76
2023-03-07T13:28:51.562Z,8.72
2023-03-07T13:31:53.110Z,8.46
2023-03-07T13:34:54.730Z,8.36
2023-03-07T13:38:23.909Z,8.38
2023-03-07T13:41:46.915Z,8.35
2023-03-07T13:44:48.442Z,7.77
2023-03-07T13:47:49.948Z,7.78
2023-03-07T13:50:51.374Z,7.97
2023-03-07T13:53:56.208Z,8.24
2023-03-07T13:56:57.720Z,8.61
2023-03-07T14:00:00.716Z,8.63
2023-03-07T14:03:02.722Z,8.36
2023-03-07T14:06:13.420Z,8.30
2023-03-07T14:09:19.748Z,8.16
2023-03-07T14:13:01.018Z,7.86
2023-03-07T14:16:13.071Z,7.63
2023-03-07T14:19:37.137Z,7.98
2023-03-07T14:23:02.574Z,7.97
2023-03-07T14:26:37.042Z,7.75
2023-03-07T14:29:49.329Z,7.54
2023-03-07T14:32:51.991Z,7.63
2023-03-07T14:35:53.531Z,7.78
2023-03-07T14:38:58.106Z,7.98
2023-03-07T14:42:12.294Z,7.83
2023-03-07T14:45:36.392Z,7.54
2023-03-07T14:48:54.909Z,7.45
2023-03-07T14:51:58.076Z,7.37
2023-03-07T14:55:02.047Z,7.23
2023-03-07T14:58:04.315Z,6.93
2023-03-07T15:01:14.375Z,6.88
2023-03-07T15:04:27.894Z,6.83
2023-03-07T15:07:29.435Z,6.79
2023-03-07T15:10:30.817Z,6.80
2023-03-07T15:13:47.478Z,6.77
2023-03-07T15:16:57.436Z,6.77
2023-03-07T15:20:18.963Z,6.72
2023-03-07T15:23:24.116Z,6.80
2023-03-07T15:26:27.725Z,6.90
2023-03-07T15:29:31.335Z,6.87
2023-03-07T15:32:38.253Z,6.83
2023-03-07T15:35:40.109Z,6.68
2023-03-07T15:38:44.681Z,6.64
2023-03-07T15:42:06.280Z,6.50
2023-03-07T15:45:28.248Z,6.66
2023-03-07T15:48:48.721Z,6.89
2023-03-07T15:51:54.248Z,6.87
2023-03-07T15:54:57.889Z,6.67
2023-03-07T15:58:05.274Z,6.94
2023-03-07T16:01:18.164Z,7.12
2023-03-07T16:04:31.677Z,7.47
2023-03-07T16:07:33.246Z,7.41
2023-03-07T16:10:34.726Z,7.01
2023-03-07T16:13:42.348Z,6.67
2023-03-07T16:16:44.430Z,6.33
2023-03-07T16:19:46.072Z,6.02
2023-03-07T16:22:47.832Z,5.74
2023-03-07T16:25:49.506Z,5.57
2023-03-07T16:28:52.772Z,5.61
2023-03-07T16:31:54.272Z,5.54
2023-03-07T16:34:55.754Z,5.46
2023-03-07T16:37:57.320Z,5.41
2023-03-07T16:41:00.956Z,5.38
2023-03-07T16:44:02.630Z,5.39
2023-03-07T16:47:22.178Z,5.62
2023-03-07T16:50:29.559Z,6.51
2023-03-07T16:53:31.377Z,6.90
2023-03-07T16:56:36.891Z,6.18
2023-03-07T16:59:42.035Z,5.59
2023-03-07T17:02:45.244Z,5.32
2023-03-07T17:05:46.825Z,5.20
2023-03-07T17:08:50.758Z,5.01
2023-03-07T17:11:52.724Z,4.86
2023-03-07T17:14:56.548Z,4.71
2023-03-07T17:17:59.480Z,4.57
2023-03-07T17:21:00.942Z,4.46
2023-03-07T17:24:02.437Z,4.46
2023-03-07T17:27:04.029Z,4.48
2023-03-07T17:30:05.953Z,4.50
2023-03-07T17:33:10.463Z,4.57
2023-03-07T17:36:12.170Z,4.55
2023-03-07T17:39:13.803Z,4.65
2023-03-07T17:42:15.282Z,4.62
2023-03-07T17:45:17.495Z,4.66
2023-03-07T17:48:18.981Z,4.64
2023-03-07T17:51:20.487Z,4.61
2023-03-07T17:54:21.984Z,4.65
2023-03-07T17:57:23.569Z,4.57
2023-03-07T18:00:25.645Z,4.60
2023-03-07T18:03:27.269Z,4.59
2023-03-07T18:10:51.961Z,4.58
2023-03-07T18:13:53.717Z,4.61
2023-03-07T18:16:55.209Z,4.64
2023-03-07T18:19:56.791Z,4.63
2023-03-07T18:22:58.252Z,4.62
2023-03-07T18:26:05.498Z,4.66
2023-03-07T18:29:07.266Z,4.64
2023-03-07T18:32:08.776Z,4.61
2023-03-07T18:35:11.367Z,4.55
2023-03-07T18:38:12.857Z,4.53
2023-03-07T18:41:16.903Z,4.49
2023-03-07T18:44:19.596Z,4.44
2023-03-07T18:47:21.179Z,4.44
2023-03-07T18:50:22.895Z,4.41
2023-03-07T18:53:24.709Z,4.37
2023-03-07T18:56:27.377Z,4.38
2023-03-07T18:59:28.849Z,4.41
2023-03-07T19:02:30.412Z,4.42
2023-03-07T19:05:32.144Z,4.40
2023-03-07T19:08:34.491Z,4.38
2023-03-07T19:11:36.233Z,4.30
2023-03-07T19:14:38.388Z,4.16
2023-03-07T19:17:41.517Z,4.10
2023-03-07T19:20:43.015Z,4.04
2023-03-07T19:23:45.152Z,4.02
2023-03-07T19:26:48.773Z,4.01
2023-03-07T19:29:50.324Z,3.96
2023-03-07T19:32:51.930Z,3.90
2023-03-07T19:36:11.641Z,3.88
2023-03-07T19:39:20.369Z,3.87
2023-03-07T19:42:24.564Z,3.85
2023-03-07T19:45:26.970Z,3.83
2023-03-07T19:48:29.286Z,3.80
2023-03-07T19:51:30.760Z,3.75
2023-03-07T19:54:32.266Z,3.78
2023-03-07T19:57:36.324Z,3.77
2023-03-07T20:00:39.690Z,3.74
2023-03-07T20:03:41.143Z,3.66
2023-03-07T20:06:43.857Z,3.60
2023-03-07T20:09:45.663Z,3.62
2023-03-07T20:12:47.664Z,3.58
2023-03-07T20:15:52.600Z,3.58
2023-03-07T20:18:55.662Z,3.56
2023-03-07T20:21:57.167Z,3.50
2023-03-07T20:24:58.620Z,3.53
2023-03-07T20:28:00.217Z,3.50
2023-03-07T20:31:04.111Z,3.49
2023-03-07T20:34:06.479Z,3.46
2023-03-07T20:37:08.039Z,3.46
2023-03-07T20:40:10.174Z,3.46
2023-03-07T20:43:11.660Z,3.45
2023-03-07T20:46:14.738Z,3.39
2023-03-07T20:49:16.359Z,3.34
2023-03-07T20:52:17.915Z,3.36
2023-03-07T20:55:20.122Z,3.34
2023-03-07T20:58:22.107Z,3.33
2023-03-07T21:01:25.876Z,3.37
2023-03-07T21:04:27.680Z,3.39
2023-03-07T21:07:29.302Z,3.35
2023-03-07T21:10:30.829Z,3.39
2023-03-07T21:13:34.914Z,3.41
2023-03-07T21:16:36.441Z,3.42
2023-03-07T21:19:38.175Z,3.46
2023-03-07T21:22:40.608Z,3.44
2023-03-07T21:25:42.270Z,3.41
2023-03-07T21:28:44.153Z,3.41
2023-03-07T21:31:45.809Z,3.38
2023-03-07T21:34:47.282Z,3.39
2023-03-07T21:37:48.778Z,3.40
2023-03-07T21:40:50.771Z,3.42
2023-03-07T21:43:56.306Z,3.38
2023-03-07T21:46:57.881Z,3.38
2023-03-07T21:49:59.346Z,3.35
2023-03-07T21:53:00.806Z,3.36
2023-03-07T21:56:08.323Z,3.33
2023-03-07T21:59:10.046Z,3.40
2023-03-07T22:02:11.920Z,3.39
2023-03-07T22:05:13.396Z,3.37
2023-03-07T22:08:20.237Z,3.34
2023-03-07T22:11:22.149Z,3.40
2023-03-07T22:14:23.675Z,3.37
2023-03-07T22:17:26.232Z,3.38
2023-03-07T22:20:27.726Z,3.39
2023-03-07T22:23:29.172Z,3.38
2023-03-07T22:26:31.971Z,3.41
2023-03-07T22:29:33.582Z,3.40
2023-03-07T22:32:35.244Z,3.40
2023-03-07T22:35:36.917Z,3.44
2023-03-07T22:38:38.940Z,3.41
2023-03-07T22:41:40.575Z,3.37
2023-03-07T22:44:42.054Z,3.32
2023-03-07T22:47:43.541Z,3.28
2023-03-07T22:50:44.991Z,3.32
2023-03-07T22:53:46.891Z,3.26
2023-03-07T22:56:48.569Z,3.21
2023-03-07T22:59:50.148Z,3.10
2023-03-07T23:02:51.745Z,3.15
2023-03-07T23:05:58.676Z,3.18
2023-03-07T23:09:01.949Z,3.15
2023-03-07T23:12:03.543Z,3.12
2023-03-07T23:15:05.455Z,3.08
2023-03-07T23:18:06.937Z,3.02
2023-03-07T23:21:11.166Z,3.08
2023-03-07T23:24:12.680Z,3.09
2023-03-07T23:27:14.106Z,3.07
2023-03-07T23:30:17.418Z,3.06
2023-03-07T23:33:18.915Z,3.03
2023-03-07T23:36:20.377Z,2.98
2023-03-07T23:39:21.843Z,2.92
2023-03-07T23:42:23.405Z,2.89
2023-03-07T23:45:25.549Z,2.84
2023-03-07T23:48:26.978Z,2.84
2023-03-07T23:51:28.464Z,2.88
2023-03-07T23:54:29.922Z,2.88
2023-03-07T23:57:31.436Z,2.88
